createdAt,value
2023-04-30T00:00:35.763Z,68.72
2023-04-30T00:03:02.468Z,69.41
2023-04-30T00:05:28.988Z,69.27
2023-04-30T00:07:55.364Z,68.43
2023-04-30T00:10:21.771Z,69.47
2023-04-30T00:12:48.156Z,68.71
2023-04-30T00:15:14.694Z,69.23
2023-04-30T00:17:41.261Z,69.08
2023-04-30T00:20:08.324Z,69.81
2023-04-30T00:22:34.888Z,69.02
2023-04-30T00:25:01.514Z,69.50
2023-04-30T00:27:28.134Z,69.21
2023-04-30T00:29:55.557Z,69.61
2023-04-30T00:32:22.413Z,69.74
2023-04-30T00:34:49.001Z,69.53
2023-04-30T00:37:15.546Z,69.50
2023-04-30T00:39:41.921Z,69.46
2023-04-30T00:42:08.320Z,69.94
2023-04-30T00:44:34.740Z,69.99
2023-04-30T00:47:01.205Z,69.68
2023-04-30T00:49:27.637Z,70.09
2023-04-30T00:51:54.493Z,69.76
2023-04-30T00:54:21.410Z,69.44
2023-04-30T00:56:47.841Z,70.00
2023-04-30T00:59:14.288Z,69.95
2023-04-30T01:01:41.170Z,70.38
2023-04-30T01:04:07.622Z,70.75
2023-04-30T01:06:34.260Z,70.01
2023-04-30T01:09:01.120Z,69.67
2023-04-30T01:12:01.894Z,69.66
2023-04-30T01:14:34.025Z,69.78
2023-04-30T01:17:06.691Z,70.28
2023-04-30T01:19:43.665Z,70.47
2023-04-30T01:22:30.282Z,70.11
2023-04-30T01:25:08.953Z,70.58
2023-04-30T01:28:06.859Z,69.70
2023-04-30T01:30:34.568Z,70.26
2023-04-30T01:33:01.326Z,70.60
2023-04-30T01:35:41.745Z,70.33
2023-04-30T01:38:28.797Z,70.34
2023-04-30T01:41:04.881Z,70.19
2023-04-30T01:43:44.967Z,70.88
2023-04-30T01:46:21.623Z,70.83
2023-04-30T01:49:13.656Z,70.98
2023-04-30T01:51:42.186Z,71.35
2023-04-30T01:54:19.454Z,70.83
2023-04-30T01:56:52.193Z,71.65
2023-04-30T01:59:18.908Z,71.81
2023-04-30T02:01:45.357Z,70.74
2023-04-30T02:04:11.721Z,71.57
2023-04-30T02:06:38.189Z,71.03
2023-04-30T02:09:06.858Z,71.28
2023-04-30T02:11:33.252Z,71.33
2023-04-30T02:13:59.616Z,71.56
2023-04-30T02:16:26.085Z,70.96
2023-04-30T02:18:52.552Z,71.47
2023-04-30T02:21:19.318Z,71.48
2023-04-30T02:23:45.913Z,71.51
2023-04-30T02:26:12.304Z,71.17
2023-04-30T02:28:38.666Z,71.37
2023-04-30T02:31:05.101Z,71.51
2023-04-30T02:33:31.686Z,71.18
2023-04-30T02:35:59.793Z,71.17
2023-04-30T02:38:26.455Z,71.39
2023-04-30T02:40:53.067Z,72.06
2023-04-30T02:43:19.443Z,71.99
2023-04-30T02:45:45.810Z,71.94
2023-04-30T02:48:12.521Z,72.17
2023-04-30T02:50:38.978Z,71.82
2023-04-30T02:53:05.394Z,71.94
2023-04-30T02:55:32.696Z,71.85
2023-04-30T02:57:59.048Z,71.39
2023-04-30T03:00:25.424Z,71.88
2023-04-30T03:02:51.923Z,72.24
2023-04-30T03:05:18.436Z,72.30
2023-04-30T03:07:44.840Z,72.31
2023-04-30T03:10:11.488Z,72.10
2023-04-30T03:12:37.842Z,71.63
2023-04-30T03:15:04.670Z,71.98
2023-04-30T03:17:31.063Z,72.50
2023-04-30T03:19:57.549Z,72.38
2023-04-30T03:22:26.482Z,72.17
2023-04-30T03:24:54.153Z,71.64
2023-04-30T03:27:20.867Z,71.95
2023-04-30T03:29:47.221Z,72.21
2023-04-30T03:32:13.629Z,72.39
2023-04-30T03:34:40.006Z,72.42
2023-04-30T03:37:06.389Z,72.72
2023-04-30T03:39:32.762Z,72.25
2023-04-30T03:41:59.140Z,71.89
2023-04-30T03:44:25.562Z,72.65
2023-04-30T03:46:51.910Z,72.30
2023-04-30T03:49:18.284Z,72.09
2023-04-30T03:51:44.955Z,72.13
2023-04-30T03:54:11.306Z,72.29
2023-04-30T03:56:38.098Z,72.16
2023-04-30T03:59:05.402Z,72.97
2023-04-30T04:01:31.796Z,73.68
2023-04-30T04:03:58.849Z,73.34
2023-04-30T04:06:25.357Z,72.83
2023-04-30T04:08:51.803Z,73.19
2023-04-30T04:11:18.221Z,73.20
2023-04-30T04:13:44.585Z,72.55
2023-04-30T04:16:11.222Z,72.18
2023-04-30T04:18:37.686Z,73.12
2023-04-30T04:21:04.308Z,72.59
2023-04-30T04:23:30.727Z,72.60
2023-04-30T04:25:57.523Z,72.78
2023-04-30T04:28:24.087Z,72.62
2023-04-30T04:30:50.464Z,73.37
2023-04-30T04:33:17.261Z,73.72
2023-04-30T04:35:43.672Z,72.82
2023-04-30T04:38:10.113Z,73.70
2023-04-30T04:40:37.207Z,73.09
2023-04-30T04:43:03.751Z,73.39
2023-04-30T04:45:31.376Z,73.61
2023-04-30T04:47:57.796Z,74.44
2023-04-30T04:50:24.400Z,73.21
2023-04-30T04:52:50.873Z,73.44
2023-04-30T04:55:17.621Z,73.79
2023-04-30T04:57:43.984Z,73.98
2023-04-30T05:00:11.718Z,73.48
2023-04-30T05:02:38.191Z,73.82
2023-04-30T05:05:04.888Z,74.33
2023-04-30T05:07:31.547Z,73.61
2023-04-30T05:09:57.891Z,74.56
2023-04-30T05:12:24.321Z,74.12
2023-04-30T05:14:51.235Z,73.99
2023-04-30T05:17:17.696Z,74.29
2023-04-30T05:19:44.182Z,74.93
2023-04-30T05:22:10.808Z,74.71
2023-04-30T05:24:37.226Z,74.30
2023-04-30T05:27:05.441Z,73.68
2023-04-30T05:29:31.803Z,74.44
2023-04-30T05:31:58.312Z,75.88
2023-04-30T05:34:24.810Z,76.98
2023-04-30T05:36:51.365Z,77.96
2023-04-30T05:39:17.773Z,76.51
2023-04-30T05:41:44.291Z,76.09
2023-04-30T05:44:10.735Z,76.69
2023-04-30T05:46:37.180Z,76.43
2023-04-30T05:49:03.720Z,76.15
2023-04-30T05:51:30.214Z,77.60
2023-04-30T05:53:57.488Z,77.67
2023-04-30T05:56:24.805Z,78.86
2023-04-30T05:58:52.476Z,78.36
2023-04-30T06:01:22.170Z,77.91
2023-04-30T06:03:48.720Z,77.63
2023-04-30T06:06:15.246Z,79.42
2023-04-30T06:08:45.337Z,79.50
2023-04-30T06:11:12.935Z,79.46
2023-04-30T06:13:39.677Z,79.37
2023-04-30T06:16:07.281Z,79.14
2023-04-30T06:18:33.870Z,79.15
2023-04-30T06:21:00.413Z,78.67
2023-04-30T06:23:26.811Z,78.58
2023-04-30T06:25:53.211Z,77.80
2023-04-30T06:28:19.638Z,77.29
2023-04-30T06:30:46.183Z,78.09
2023-04-30T06:33:12.547Z,77.83
2023-04-30T06:35:39.009Z,77.24
2023-04-30T06:38:05.441Z,76.58
2023-04-30T06:40:31.823Z,76.34
2023-04-30T06:42:58.338Z,76.23
2023-04-30T06:45:24.766Z,75.80
2023-04-30T06:47:51.937Z,75.59
2023-04-30T06:50:18.760Z,74.93
2023-04-30T06:52:45.169Z,75.08
2023-04-30T06:55:11.550Z,74.24
2023-04-30T06:57:37.940Z,74.32
2023-04-30T07:00:06.421Z,74.47
2023-04-30T07:02:33.201Z,73.65
2023-04-30T07:04:59.681Z,72.54
2023-04-30T07:07:26.190Z,73.34
2023-04-30T07:09:53.762Z,72.91
2023-04-30T07:12:21.331Z,72.46
2023-04-30T07:14:47.814Z,72.28
2023-04-30T07:17:14.207Z,71.51
2023-04-30T07:19:40.655Z,70.76
2023-04-30T07:22:07.071Z,71.80
2023-04-30T07:24:34.179Z,71.68
2023-04-30T07:27:03.152Z,70.22
2023-04-30T07:29:30.193Z,70.18
2023-04-30T07:31:56.873Z,69.80
2023-04-30T07:34:23.372Z,69.42
2023-04-30T07:36:50.269Z,69.89
2023-04-30T07:39:17.798Z,69.55
2023-04-30T07:41:44.230Z,69.91
2023-04-30T07:44:11.956Z,67.96
2023-04-30T07:46:38.550Z,68.39
2023-04-30T07:49:05.029Z,68.04
2023-04-30T07:51:32.906Z,64.87
2023-04-30T07:54:00.167Z,60.15
2023-04-30T07:56:26.704Z,56.29
2023-04-30T07:58:53.129Z,55.45
2023-04-30T08:01:19.504Z,51.01
2023-04-30T08:03:46.513Z,49.61
2023-04-30T08:06:13.136Z,47.77
2023-04-30T08:08:39.746Z,46.55
2023-04-30T08:11:06.250Z,46.11
2023-04-30T08:13:32.753Z,45.70
2023-04-30T08:15:59.139Z,43.19
2023-04-30T08:18:25.551Z,39.28
2023-04-30T08:20:52.044Z,39.89
2023-04-30T08:23:18.514Z,39.98
2023-04-30T08:25:44.920Z,41.89
2023-04-30T08:28:11.287Z,40.71
2023-04-30T08:30:37.743Z,40.92
2023-04-30T08:33:04.306Z,38.19
2023-04-30T08:35:30.805Z,37.45
2023-04-30T08:37:57.191Z,36.99
2023-04-30T08:40:33.805Z,37.46
2023-04-30T08:43:11.583Z,36.26
2023-04-30T08:45:38.059Z,37.93
2023-04-30T08:48:05.367Z,36.84
2023-04-30T08:50:32.106Z,38.50
2023-04-30T08:52:59.032Z,38.59
2023-04-30T08:55:27.451Z,37.60
2023-04-30T08:57:53.926Z,39.22
2023-04-30T09:00:20.489Z,37.63
2023-04-30T09:02:48.329Z,36.57
2023-04-30T09:05:15.679Z,37.10
2023-04-30T09:07:55.617Z,40.72
2023-04-30T09:10:32.320Z,38.13
2023-04-30T09:13:06.644Z,36.45
2023-04-30T09:15:34.683Z,37.91
2023-04-30T09:18:17.325Z,38.58
2023-04-30T09:20:58.416Z,38.22
2023-04-30T09:23:25.313Z,36.88
2023-04-30T09:25:51.757Z,40.22
2023-04-30T09:28:18.547Z,40.20
2023-04-30T09:30:45.132Z,39.89
2023-04-30T09:33:12.531Z,38.48
2023-04-30T09:35:41.587Z,42.73
2023-04-30T09:38:08.714Z,40.53
2023-04-30T09:40:40.342Z,40.41
2023-04-30T09:43:06.941Z,38.67
2023-04-30T09:45:48.370Z,41.64
2023-04-30T09:48:18.927Z,41.45
2023-04-30T09:50:46.097Z,39.57
2023-04-30T09:53:14.236Z,39.64
2023-04-30T09:55:45.796Z,41.76
2023-04-30T09:58:12.921Z,41.13
2023-04-30T10:00:39.955Z,41.33
2023-04-30T10:03:11.700Z,42.49
2023-04-30T10:05:40.677Z,41.56
2023-04-30T10:08:13.807Z,42.91
2023-04-30T10:10:43.225Z,43.13
2023-04-30T10:13:11.818Z,42.88
2023-04-30T10:15:47.862Z,41.56
2023-04-30T10:18:23.877Z,42.55
2023-04-30T10:20:51.809Z,43.19
2023-04-30T10:23:18.511Z,45.54
2023-04-30T10:25:45.551Z,45.76
2023-04-30T10:28:12.602Z,45.00
2023-04-30T10:30:39.186Z,43.59
2023-04-30T10:33:49.649Z,46.71
2023-04-30T10:36:38.496Z,45.94
2023-04-30T10:39:05.219Z,45.45
2023-04-30T10:41:31.947Z,47.13
2023-04-30T10:44:02.311Z,47.77
2023-04-30T10:46:29.060Z,47.80
2023-04-30T10:48:55.767Z,46.48
2023-04-30T10:51:22.642Z,46.47
2023-04-30T10:53:51.340Z,47.05
2023-04-30T10:56:32.270Z,48.15
2023-04-30T10:59:01.188Z,47.20
2023-04-30T11:01:28.383Z,46.30
2023-04-30T11:04:10.946Z,46.51
2023-04-30T11:06:52.546Z,46.46
2023-04-30T11:09:18.998Z,45.20
2023-04-30T11:11:46.465Z,44.73
2023-04-30T11:14:13.391Z,45.87
2023-04-30T11:16:41.286Z,43.46
2023-04-30T11:19:13.243Z,43.90
2023-04-30T11:22:05.302Z,42.81
2023-04-30T11:24:59.757Z,43.58
2023-04-30T11:27:30.832Z,43.94
2023-04-30T11:29:58.286Z,45.37
2023-04-30T11:32:27.433Z,45.00
2023-04-30T11:34:54.614Z,43.06
2023-04-30T11:37:43.676Z,42.81
2023-04-30T11:40:11.966Z,43.79
2023-04-30T11:42:39.821Z,45.38
2023-04-30T11:45:23.662Z,43.37
2023-04-30T11:47:52.040Z,44.51
2023-04-30T11:50:29.408Z,43.91
2023-04-30T11:52:57.350Z,44.58
2023-04-30T11:55:25.298Z,43.27
2023-04-30T11:57:55.687Z,44.48
2023-04-30T12:00:27.729Z,42.14
2023-04-30T12:02:56.122Z,41.57
2023-04-30T12:05:26.769Z,42.13
2023-04-30T12:07:57.511Z,39.24
2023-04-30T12:10:25.671Z,40.05
2023-04-30T12:12:53.238Z,40.81
2023-04-30T12:15:26.208Z,40.40
2023-04-30T12:17:54.644Z,40.47
2023-04-30T12:20:22.522Z,41.01
2023-04-30T12:22:49.148Z,42.02
2023-04-30T12:25:17.863Z,38.66
2023-04-30T12:27:51.175Z,39.58
2023-04-30T12:30:22.029Z,39.87
2023-04-30T12:32:53.367Z,38.52
2023-04-30T12:35:21.559Z,38.06
2023-04-30T12:37:52.586Z,39.91
2023-04-30T12:40:27.059Z,35.83
2023-04-30T12:43:01.241Z,35.08
2023-04-30T12:45:52.847Z,38.29
2023-04-30T12:48:21.212Z,38.87
2023-04-30T12:50:53.625Z,37.88
2023-04-30T12:53:21.568Z,36.87
2023-04-30T12:56:15.882Z,36.20
2023-04-30T12:58:45.441Z,36.12
2023-04-30T13:01:15.308Z,37.13
2023-04-30T13:03:42.314Z,36.14
2023-04-30T13:06:10.440Z,36.29
2023-04-30T13:08:45.669Z,34.34
2023-04-30T13:11:24.154Z,35.82
2023-04-30T13:13:50.585Z,34.89
2023-04-30T13:16:17.186Z,35.40
2023-04-30T13:18:43.949Z,34.32
2023-04-30T13:21:10.687Z,34.98
2023-04-30T13:23:48.626Z,34.64
2023-04-30T13:26:18.820Z,35.17
2023-04-30T13:28:45.242Z,34.38
2023-04-30T13:31:11.677Z,34.41
2023-04-30T13:33:38.145Z,32.79
2023-04-30T13:36:04.564Z,34.09
2023-04-30T13:38:30.931Z,32.84
2023-04-30T13:40:57.352Z,30.79
2023-04-30T13:43:23.862Z,32.46
2023-04-30T13:45:51.196Z,32.04
2023-04-30T13:48:17.580Z,34.19
2023-04-30T13:50:44.041Z,33.78
2023-04-30T13:53:10.470Z,33.41
2023-04-30T13:55:36.906Z,36.60
2023-04-30T13:58:03.559Z,32.30
2023-04-30T14:00:30.017Z,32.29
2023-04-30T14:02:56.518Z,34.31
2023-04-30T14:05:23.001Z,31.84
2023-04-30T14:07:49.367Z,33.60
2023-04-30T14:10:15.822Z,32.47
2023-04-30T14:12:42.249Z,32.88
2023-04-30T14:15:09.376Z,33.09
2023-04-30T14:17:35.987Z,33.76
2023-04-30T14:20:02.543Z,33.30
2023-04-30T14:22:29.005Z,34.16
2023-04-30T14:24:55.380Z,36.11
2023-04-30T14:27:21.962Z,35.91
2023-04-30T14:29:48.407Z,36.94
2023-04-30T14:32:14.900Z,36.25
2023-04-30T14:34:41.451Z,36.82
2023-04-30T14:37:08.022Z,36.36
2023-04-30T14:39:34.410Z,36.61
2023-04-30T14:42:01.682Z,37.43
2023-04-30T14:44:28.093Z,36.81
2023-04-30T14:46:54.610Z,39.82
2023-04-30T14:49:20.999Z,38.83
2023-04-30T14:51:47.560Z,38.33
2023-04-30T14:54:13.987Z,37.31
2023-04-30T14:56:41.033Z,41.17
2023-04-30T14:59:07.473Z,41.45
2023-04-30T15:01:33.897Z,39.09
2023-04-30T15:04:00.580Z,36.29
2023-04-30T15:06:27.353Z,40.19
2023-04-30T15:08:53.923Z,42.93
2023-04-30T15:11:20.301Z,42.96
2023-04-30T15:13:46.847Z,44.34
2023-04-30T15:16:13.397Z,43.93
2023-04-30T15:18:40.341Z,43.03
2023-04-30T15:21:06.755Z,43.15
2023-04-30T15:23:33.626Z,44.83
2023-04-30T15:26:00.789Z,43.65
2023-04-30T15:28:27.273Z,43.25
2023-04-30T15:30:54.044Z,41.66
2023-04-30T15:33:20.668Z,44.20
2023-04-30T15:35:47.828Z,45.62
2023-04-30T15:38:14.260Z,45.45
2023-04-30T15:40:40.647Z,44.09
2023-04-30T15:43:07.727Z,45.18
2023-04-30T15:45:34.158Z,45.65
2023-04-30T15:48:00.849Z,38.26
2023-04-30T15:50:27.841Z,44.40
2023-04-30T15:52:54.298Z,46.06
2023-04-30T15:55:20.683Z,45.65
2023-04-30T15:57:47.314Z,46.77
2023-04-30T16:00:15.243Z,45.85
2023-04-30T16:02:41.878Z,46.04
2023-04-30T16:05:08.833Z,46.17
2023-04-30T16:07:35.402Z,45.52
2023-04-30T16:10:02.643Z,45.37
2023-04-30T16:12:29.207Z,46.01
2023-04-30T16:14:55.743Z,46.24
2023-04-30T16:17:22.188Z,46.24
2023-04-30T16:19:48.611Z,45.92
2023-04-30T16:22:17.059Z,47.50
2023-04-30T16:24:43.510Z,46.18
2023-04-30T16:27:09.983Z,46.80
2023-04-30T16:29:36.380Z,47.11
2023-04-30T16:32:02.909Z,46.75
2023-04-30T16:34:29.444Z,45.53
2023-04-30T16:36:56.081Z,44.72
2023-04-30T16:39:22.657Z,43.93
2023-04-30T16:41:49.065Z,41.78
2023-04-30T16:44:15.570Z,41.46
2023-04-30T16:46:42.013Z,41.57
2023-04-30T16:49:08.454Z,42.53
2023-04-30T16:51:34.911Z,44.82
2023-04-30T16:54:01.317Z,39.13
2023-04-30T16:56:27.723Z,38.90
2023-04-30T16:58:54.668Z,39.54
2023-04-30T17:01:21.072Z,37.02
2023-04-30T17:03:48.901Z,37.73
2023-04-30T17:06:15.551Z,38.07
2023-04-30T17:08:42.031Z,39.97
2023-04-30T17:11:08.413Z,39.42
2023-04-30T17:13:37.350Z,39.05
2023-04-30T17:16:03.890Z,41.89
2023-04-30T17:18:30.380Z,42.01
2023-04-30T17:20:56.855Z,43.49
2023-04-30T17:23:25.452Z,41.58
2023-04-30T17:25:51.891Z,40.96
2023-04-30T17:28:18.289Z,40.31
2023-04-30T17:30:45.183Z,40.35
2023-04-30T17:33:11.696Z,40.77
2023-04-30T17:35:38.115Z,40.40
2023-04-30T17:38:04.551Z,40.90
2023-04-30T17:40:31.731Z,41.60
2023-04-30T17:42:58.145Z,42.78
2023-04-30T17:45:26.681Z,42.37
2023-04-30T17:47:53.210Z,42.63
2023-04-30T17:50:19.677Z,41.48
2023-04-30T17:52:46.670Z,42.50
2023-04-30T17:55:13.692Z,42.54
2023-04-30T17:57:40.169Z,43.39
2023-04-30T18:00:07.264Z,43.57
2023-04-30T18:02:33.665Z,43.97
2023-04-30T18:05:00.045Z,44.52
2023-04-30T18:07:26.792Z,44.38
2023-04-30T18:09:53.523Z,43.87
2023-04-30T18:12:20.142Z,43.40
2023-04-30T18:14:46.627Z,44.82
2023-04-30T18:17:15.103Z,43.95
2023-04-30T18:19:44.441Z,42.28
2023-04-30T18:22:12.343Z,42.56
2023-04-30T18:24:39.116Z,44.67
2023-04-30T18:27:06.887Z,44.14
2023-04-30T18:29:33.970Z,44.97
2023-04-30T18:32:00.423Z,43.91
2023-04-30T18:34:28.123Z,46.21
2023-04-30T18:36:54.745Z,45.88
2023-04-30T18:39:22.362Z,45.75
2023-04-30T18:41:49.119Z,45.95
2023-04-30T18:44:15.630Z,46.97
2023-04-30T18:46:42.687Z,48.16
2023-04-30T18:49:09.400Z,48.62
2023-04-30T18:51:35.987Z,48.52
2023-04-30T18:54:02.437Z,49.74
2023-04-30T18:56:28.996Z,49.55
2023-04-30T18:58:55.639Z,50.00
2023-04-30T19:01:24.285Z,50.28
2023-04-30T19:03:50.953Z,50.42
2023-04-30T19:06:17.514Z,49.52
2023-04-30T19:08:46.377Z,49.90
2023-04-30T19:11:13.755Z,50.27
2023-04-30T19:13:40.287Z,50.51
2023-04-30T19:16:06.760Z,50.87
2023-04-30T19:18:34.919Z,51.16
2023-04-30T19:21:02.101Z,51.37
2023-04-30T19:23:30.715Z,51.23
2023-04-30T19:25:57.892Z,51.74
2023-04-30T19:28:24.322Z,52.18
2023-04-30T19:30:54.192Z,52.36
2023-04-30T19:33:21.601Z,52.79
2023-04-30T19:35:49.639Z,52.62
2023-04-30T19:38:16.134Z,52.22
2023-04-30T19:40:49.849Z,52.22
2023-04-30T19:43:16.452Z,52.26
2023-04-30T19:45:53.147Z,52.50
2023-04-30T19:48:21.784Z,52.53
2023-04-30T19:50:49.110Z,52.24
2023-04-30T19:53:16.470Z,53.14
2023-04-30T19:55:43.184Z,53.13
2023-04-30T19:58:09.754Z,53.95
2023-04-30T20:00:37.808Z,53.75
2023-04-30T20:03:05.411Z,53.23
2023-04-30T20:05:32.630Z,54.18
2023-04-30T20:07:59.554Z,54.46
2023-04-30T20:10:25.997Z,54.86
2023-04-30T20:12:53.444Z,55.08
2023-04-30T20:15:22.741Z,55.47
2023-04-30T20:17:50.603Z,54.92
2023-04-30T20:20:17.994Z,55.45
2023-04-30T20:22:44.434Z,55.32
2023-04-30T20:25:10.825Z,56.56
2023-04-30T20:27:37.231Z,56.20
2023-04-30T20:30:04.658Z,56.27
2023-04-30T20:32:31.640Z,56.72
2023-04-30T20:34:58.755Z,56.77
2023-04-30T20:37:25.242Z,56.75
2023-04-30T20:39:51.755Z,57.01
2023-04-30T20:42:19.232Z,57.34
2023-04-30T20:44:46.914Z,57.43
2023-04-30T20:47:14.359Z,57.49
2023-04-30T20:49:41.353Z,57.25
2023-04-30T20:52:07.798Z,57.97
2023-04-30T20:54:34.265Z,58.36
2023-04-30T20:57:00.790Z,58.51
2023-04-30T20:59:27.256Z,58.40
2023-04-30T21:01:53.961Z,58.81
2023-04-30T21:04:20.350Z,59.01
2023-04-30T21:06:46.815Z,59.64
2023-04-30T21:09:13.240Z,59.51
2023-04-30T21:11:40.417Z,59.46
2023-04-30T21:14:06.857Z,59.01
2023-04-30T21:16:33.316Z,59.72
2023-04-30T21:18:59.751Z,59.38
2023-04-30T21:21:27.420Z,59.65
2023-04-30T21:23:54.210Z,59.97
2023-04-30T21:26:21.566Z,60.00
2023-04-30T21:28:48.267Z,60.28
2023-04-30T21:31:15.100Z,60.29
2023-04-30T21:33:41.625Z,60.62
2023-04-30T21:36:08.086Z,60.41
2023-04-30T21:38:34.649Z,60.47
2023-04-30T21:41:01.384Z,60.29
2023-04-30T21:43:27.757Z,60.74
2023-04-30T21:45:54.161Z,61.13
2023-04-30T21:48:20.557Z,60.88
2023-04-30T21:50:47.821Z,61.44
2023-04-30T21:53:15.979Z,60.66
2023-04-30T21:55:42.434Z,61.01
2023-04-30T21:58:08.844Z,61.23
2023-04-30T22:00:35.902Z,60.86
2023-04-30T22:03:02.327Z,61.09
2023-04-30T22:05:28.812Z,62.04
2023-04-30T22:07:55.202Z,62.56
2023-04-30T22:10:21.625Z,61.99
2023-04-30T22:12:48.315Z,61.38
2023-04-30T22:15:14.971Z,61.84
2023-04-30T22:17:41.576Z,61.93
2023-04-30T22:20:09.777Z,62.27
2023-04-30T22:22:36.318Z,62.05
2023-04-30T22:25:02.937Z,63.27
2023-04-30T22:27:29.344Z,62.16
2023-04-30T22:29:55.935Z,62.09
2023-04-30T22:32:22.785Z,61.90
2023-04-30T22:34:50.525Z,62.84
2023-04-30T22:37:16.977Z,62.42
2023-04-30T22:39:43.374Z,62.84
2023-04-30T22:42:09.919Z,62.93
2023-04-30T22:44:36.444Z,63.37
2023-04-30T22:47:03.078Z,63.39
2023-04-30T22:49:31.974Z,63.22
2023-04-30T22:51:59.320Z,63.78
2023-04-30T22:54:25.864Z,63.75
2023-04-30T22:56:52.338Z,63.57
2023-04-30T22:59:18.795Z,63.58
2023-04-30T23:01:45.172Z,64.10
2023-04-30T23:04:12.585Z,63.90
2023-04-30T23:06:39.541Z,63.86
2023-04-30T23:09:05.933Z,63.82
2023-04-30T23:11:32.402Z,63.94
2023-04-30T23:13:58.820Z,64.25
2023-04-30T23:16:25.251Z,63.94
2023-04-30T23:18:51.858Z,64.14
2023-04-30T23:21:18.294Z,64.07
2023-04-30T23:23:44.794Z,64.56
2023-04-30T23:26:11.233Z,65.09
2023-04-30T23:28:37.954Z,64.91
2023-04-30T23:31:04.418Z,64.68
2023-04-30T23:33:30.897Z,64.89
2023-04-30T23:35:57.307Z,64.95
2023-04-30T23:38:23.709Z,65.08
2023-04-30T23:40:50.127Z,65.34
2023-04-30T23:43:16.535Z,65.21
2023-04-30T23:45:42.944Z,65.14
2023-04-30T23:48:10.336Z,65.08
2023-04-30T23:50:38.056Z,64.78
2023-04-30T23:53:04.527Z,65.49
2023-04-30T23:55:30.966Z,64.73
2023-04-30T23:57:57.446Z,65.32
